Time;durP1;ratioP1;P1;durP2;ratioP2;P2;SDS_P1;SDS_P2;PMS_P1;PMS_P2;Temp;Humidity;BMP_temperature;BMP_pressure;BME280_temperature;BME280_humidity;BME280_pressure;Samples;Min_cycle;Max_cycle;Signal;HPM_P1;HPM_P2
2023/12/21 00:01:04;;;;;;;23.57;15.57;;;;;;;7.57;100.00;100642.94;5282128;28;20064;-74
2023/12/21 00:03:35;;;;;;;19.17;12.20;;;;;;;7.57;100.00;100638.59;5282371;28;20028;-73
2023/12/21 00:06:06;;;;;;;20.90;12.60;;;;;;;7.56;100.00;100641.19;5280571;28;20085;-74
2023/12/21 00:08:38;;;;;;;24.47;12.00;;;;;;;7.58;100.00;100623.88;5282114;28;20064;-74
2023/12/21 00:11:09;;;;;;;23.27;12.70;;;;;;;7.59;100.00;100621.28;5281915;28;20082;-74
2023/12/21 00:13:40;;;;;;;21.00;13.37;;;;;;;7.57;100.00;100612.66;5281597;28;20080;-74
2023/12/21 00:16:13;;;;;;;19.87;11.63;;;;;;;7.57;100.00;100607.47;5281908;28;20449;-74
2023/12/21 00:18:44;;;;;;;21.58;11.55;;;;;;;7.57;100.00;100602.28;5282152;28;20530;-74
2023/12/21 00:21:15;;;;;;;23.43;13.63;;;;;;;7.59;100.00;100592.75;5282159;28;20024;-73
2023/12/21 00:23:47;;;;;;;24.17;11.87;;;;;;;7.59;100.00;100595.34;5281401;28;20034;-74
2023/12/21 00:26:18;;;;;;;20.80;12.33;;;;;;;7.59;100.00;100584.13;5280475;28;20672;-73
2023/12/21 00:28:49;;;;;;;25.73;13.23;;;;;;;7.59;100.00;100584.97;5280653;28;20027;-73
2023/12/21 00:31:21;;;;;;;23.73;12.83;;;;;;;7.57;100.00;100575.50;5280918;28;20037;-74
2023/12/21 00:33:52;;;;;;;27.60;14.10;;;;;;;7.56;100.00;100561.63;5282111;28;20118;-74
2023/12/21 00:36:23;;;;;;;24.23;13.80;;;;;;;7.56;100.00;100564.22;5281556;28;20120;-73
2023/12/21 00:38:55;;;;;;;18.77;14.13;;;;;;;7.53;100.00;100555.59;5281437;28;20036;-74
2023/12/21 00:41:27;;;;;;;30.27;14.47;;;;;;;7.56;100.00;100561.63;5281689;28;20488;-74
2023/12/21 00:43:58;;;;;;;24.55;16.40;;;;;;;7.54;100.00;100565.13;5281316;28;20044;-74
2023/12/21 00:46:29;;;;;;;27.33;16.20;;;;;;;7.55;100.00;100557.34;5280196;28;20117;-74
2023/12/21 00:49:01;;;;;;;23.93;15.77;;;;;;;7.51;100.00;100544.38;5281441;28;20495;-74
2023/12/21 00:51:32;;;;;;;23.83;14.80;;;;;;;7.54;100.00;100541.78;5281453;28;20495;-73
2023/12/21 00:54:04;;;;;;;25.97;16.77;;;;;;;7.55;100.00;100527.91;5281189;28;20024;-72
2023/12/21 00:56:35;;;;;;;21.57;14.73;;;;;;;7.50;100.00;100530.53;5281325;28;20039;-73
2023/12/21 00:59:06;;;;;;;29.23;15.90;;;;;;;7.51;100.00;100524.47;5281551;28;20528;-73
2023/12/21 01:01:38;;;;;;;24.67;16.83;;;;;;;7.51;100.00;100518.44;5281195;28;20132;-75
2023/12/21 01:04:09;;;;;;;25.30;15.73;;;;;;;7.53;100.00;100509.78;5280196;28;20036;-73
2023/12/21 01:06:42;;;;;;;23.43;17.40;;;;;;;7.50;100.00;100499.41;5281227;28;20028;-73
2023/12/21 01:09:13;;;;;;;23.80;16.35;;;;;;;7.51;100.00;100497.69;5281449;28;20128;-73
2023/12/21 01:11:44;;;;;;;25.33;15.13;;;;;;;7.52;100.00;100489.91;5281465;28;20111;-73
2023/12/21 01:14:17;;;;;;;29.87;15.10;;;;;;;7.52;100.00;100496.81;5281376;28;20067;-74
2023/12/21 01:16:48;;;;;;;;;;;;;;;7.55;100.00;100479.53;5282135;28;20039;-73
2023/12/21 01:19:20;;;;;;;26.88;15.90;;;;;;;7.53;100.00;100475.19;5281528;28;19908;-74
2023/12/21 01:21:51;;;;;;;21.23;15.80;;;;;;;7.52;100.00;100463.97;5281522;28;20032;-74
2023/12/21 01:24:23;;;;;;;22.23;15.03;;;;;;;7.55;100.00;100486.41;5281296;28;20046;-73
2023/12/21 01:26:54;;;;;;;27.13;15.13;;;;;;;7.57;100.00;100480.38;5281591;28;20028;-73
2023/12/21 01:29:25;;;;;;;21.40;14.77;;;;;;;7.54;100.00;100480.38;5281710;28;20039;-74
2023/12/21 01:31:58;;;;;;;23.90;14.27;;;;;;;7.57;100.00;100476.91;5281078;28;20057;-74
2023/12/21 01:34:29;;;;;;;25.60;15.57;;;;;;;7.57;100.00;100470.00;5281214;28;20081;-72
2023/12/21 01:37:01;;;;;;;19.97;14.23;;;;;;;7.55;100.00;100456.19;5281003;28;20037;-73
2023/12/21 01:39:32;;;;;;;24.07;13.93;;;;;;;7.57;100.00;100449.25;5281233;28;20437;-72
2023/12/21 01:42:03;;;;;;;26.57;15.40;;;;;;;7.56;100.00;100454.44;5279949;28;20115;-73
2023/12/21 01:44:35;;;;;;;21.90;14.77;;;;;;;7.57;100.00;100456.16;5281216;28;20040;-73
2023/12/21 01:47:06;;;;;;;19.73;13.77;;;;;;;7.55;100.00;100451.00;5281417;28;20040;-73
2023/12/21 01:49:40;;;;;;;26.13;15.67;;;;;;;7.55;100.00;100448.41;5280842;28;20032;-73
2023/12/21 01:52:12;;;;;;;29.00;15.88;;;;;;;7.55;100.00;100440.59;5281291;28;20028;-74
2023/12/21 01:54:43;;;;;;;23.17;16.03;;;;;;;7.53;100.00;100439.75;5280615;28;20094;-73
2023/12/21 01:57:15;;;;;;;22.50;15.07;;;;;;;7.56;100.00;100439.72;5284016;28;20029;-73
2023/12/21 01:59:47;;;;;;;25.92;16.92;;;;;;;7.55;100.00;100429.34;5284439;28;20062;-73
2023/12/21 02:02:18;;;;;;;27.73;18.43;;;;;;;7.57;100.00;100440.59;5284375;28;20056;-73
2023/12/21 02:04:50;;;;;;;30.00;18.10;;;;;;;7.55;100.00;100437.13;5284674;28;20338;-73
2023/12/21 02:07:22;;;;;;;31.43;20.27;;;;;;;7.57;100.00;100445.78;5284284;28;20541;-73
2023/12/21 02:09:53;;;;;;;25.87;19.17;;;;;;;7.57;100.00;100435.41;5284412;28;20486;-73
2023/12/21 02:12:24;;;;;;;31.37;19.20;;;;;;;7.58;100.00;100443.19;5284035;28;20533;-73
2023/12/21 02:14:56;;;;;;;24.00;19.03;;;;;;;7.61;100.00;100437.94;5284456;28;20444;-73
2023/12/21 02:17:29;;;;;;;31.13;20.73;;;;;;;7.57;100.00;100433.66;5284805;28;20063;-73
2023/12/21 02:20:01;;;;;;;29.95;18.42;;;;;;;7.58;100.00;100419.84;5284147;28;20093;-73
2023/12/21 02:22:39;;;;;;;29.52;19.75;;;;;;;7.57;100.00;100427.63;5284382;28;20028;-73
2023/12/21 02:25:11;;;;;;;30.08;19.33;;;;;;;7.58;100.00;100422.44;5283745;28;20028;-73
2023/12/21 02:27:42;;;;;;;24.50;17.92;;;;;;;7.57;100.00;100422.44;5284284;28;20138;-73
2023/12/21 02:30:14;;;;;;;33.83;18.03;;;;;;;7.57;100.00;100414.66;5273256;28;20108;-73
2023/12/21 02:32:45;;;;;;;23.23;19.07;;;;;;;7.58;100.00;100409.47;5262934;28;20041;-72
2023/12/21 02:35:16;;;;;;;36.30;20.57;;;;;;;7.57;100.00;100392.16;5262930;28;20437;-73
2023/12/21 02:37:48;;;;;;;39.57;19.50;;;;;;;7.56;100.00;100382.66;5261645;28;20112;-73
2023/12/21 02:40:19;;;;;;;28.97;18.20;;;;;;;7.59;100.00;100389.56;5263006;28;20044;-73
2023/12/21 02:42:51;;;;;;;34.53;18.70;;;;;;;7.58;100.00;100373.16;5263211;28;20036;-73
2023/12/21 02:45:22;;;;;;;26.80;18.80;;;;;;;7.56;100.00;100371.44;5262914;28;20029;-71
2023/12/21 02:47:53;;;;;;;25.83;17.90;;;;;;;7.57;100.00;100379.19;5261440;28;20029;-72
2023/12/21 02:50:25;;;;;;;33.40;19.90;;;;;;;7.55;100.00;100374.88;5262709;28;20192;-73
2023/12/21 02:52:56;;;;;;;30.07;18.17;;;;;;;7.55;100.00;100374.88;5262923;28;20396;-73
2023/12/21 02:55:27;;;;;;;27.97;18.40;;;;;;;7.56;100.00;100376.63;5262367;28;20441;-73
2023/12/21 02:57:59;;;;;;;28.77;19.03;;;;;;;7.57;100.00;100373.16;5262886;28;20423;-73
2023/12/21 03:00:30;;;;;;;32.67;18.03;;;;;;;7.54;100.00;100368.84;5262521;28;20033;-73
2023/12/21 03:03:01;;;;;;;29.73;17.93;;;;;;;7.54;100.00;100363.66;5261121;28;20029;-73
2023/12/21 03:05:33;;;;;;;28.13;17.07;;;;;;;7.57;100.00;100360.19;5280293;28;20033;-73
2023/12/21 03:08:04;;;;;;;30.13;15.17;;;;;;;7.57;100.00;100362.78;5282710;28;20464;-73
2023/12/21 03:10:36;;;;;;;31.00;15.70;;;;;;;7.57;100.00;100355.84;5282833;28;20029;-72
2023/12/21 03:13:07;;;;;;;29.90;15.50;;;;;;;7.57;100.00;100355.00;5282794;28;20116;-73
2023/12/21 03:15:38;;;;;;;33.33;16.03;;;;;;;7.57;100.00;100342.03;5261256;28;20049;-73
2023/12/21 03:18:11;;;;;;;30.70;14.30;;;;;;;7.57;100.00;100319.53;5261624;28;20549;-73
2023/12/21 03:20:42;;;;;;;24.38;14.75;;;;;;;7.59;100.00;100289.25;5261699;28;20463;-73
2023/12/21 03:23:14;;;;;;;34.27;14.90;;;;;;;7.57;100.00;100285.81;5262370;28;20043;-72
2023/12/21 03:25:45;;;;;;;37.63;14.40;;;;;;;7.58;100.00;100259.03;5261063;28;20150;-73
2023/12/21 03:28:17;;;;;;;23.40;14.43;;;;;;;7.59;100.00;100272.84;5261655;28;20480;-73
2023/12/21 03:30:48;;;;;;;25.47;13.47;;;;;;;7.60;100.00;100269.34;5261747;28;20032;-72
2023/12/21 03:33:19;;;;;;;26.80;13.60;;;;;;;7.60;100.00;100267.66;5261432;28;20156;-73
2023/12/21 03:35:51;;;;;;;29.40;12.73;;;;;;;7.61;100.00;100264.16;5261471;28;20037;-72
2023/12/21 03:38:22;;;;;;;38.93;13.20;;;;;;;7.61;100.00;100256.38;5293833;28;20037;-73
2023/12/21 03:40:54;;;;;;;28.93;12.17;;;;;;;7.63;100.00;100265.03;5261845;28;20077;-72
2023/12/21 03:43:25;;;;;;;25.83;12.67;;;;;;;7.62;100.00;100245.13;5261543;28;20117;-73
2023/12/21 03:45:56;;;;;;;27.47;12.80;;;;;;;7.65;100.00;100247.69;5262193;28;20460;-74
2023/12/21 03:48:28;;;;;;;26.30;12.57;;;;;;;7.63;100.00;100244.28;5261535;28;20029;-73
2023/12/21 03:50:59;;;;;;;25.70;11.67;;;;;;;7.65;100.00;100241.66;5261702;28;20122;-73
2023/12/21 03:53:30;;;;;;;23.80;12.03;;;;;;;7.65;100.00;100231.28;5259941;28;20025;-73
2023/12/21 03:56:02;;;;;;;26.43;10.97;;;;;;;7.64;100.00;100232.16;5261475;28;20048;-73
2023/12/21 03:58:35;;;;;;;31.03;14.00;;;;;;;7.66;100.00;100235.59;5261409;28;20033;-73
2023/12/21 04:01:07;;;;;;;27.60;12.73;;;;;;;7.71;100.00;100217.38;5261163;28;20432;-73
2023/12/21 04:03:39;;;;;;;32.05;14.73;;;;;;;7.68;100.00;100207.91;5261458;28;20029;-73
2023/12/21 04:06:10;;;;;;;26.60;13.57;;;;;;;7.67;100.00;100201.84;5260188;28;20033;-73
2023/12/21 04:08:41;;;;;;;29.83;13.53;;;;;;;7.64;100.00;100201.88;5261421;28;20032;-72
2023/12/21 04:11:13;;;;;;;37.80;15.37;;;;;;;7.70;100.00;100207.91;5261206;28;20099;-73
2023/12/21 04:13:47;;;;;;;31.83;14.27;;;;;;;7.69;100.00;100211.34;5261075;28;20103;-72
2023/12/21 04:16:18;;;;;;;27.65;15.60;;;;;;;7.70;100.00;100202.72;5261227;28;20347;-74
2023/12/21 04:18:50;;;;;;;35.73;16.80;;;;;;;7.70;100.00;100185.41;5260887;28;20033;-72
2023/12/21 04:21:21;;;;;;;35.40;15.93;;;;;;;7.70;100.00;100182.81;5261095;28;20107;-72
2023/12/21 04:23:52;;;;;;;28.57;15.50;;;;;;;7.70;100.00;100176.78;5260881;28;20045;-74
2023/12/21 04:26:24;;;;;;;32.53;16.10;;;;;;;7.73;100.00;100168.91;5261224;28;20053;-73
2023/12/21 04:28:55;;;;;;;35.17;15.50;;;;;;;7.71;100.00;100160.31;5261057;28;20037;-73
2023/12/21 04:31:26;;;;;;;27.87;16.27;;;;;;;7.72;100.00;100159.44;5260474;28;20357;-72
2023/12/21 04:33:58;;;;;;;29.47;16.47;;;;;;;7.74;100.00;100157.69;5260816;28;20032;-74
2023/12/21 04:36:29;;;;;;;29.07;16.73;;;;;;;7.77;100.00;100158.50;5260851;28;20117;-72
2023/12/21 04:39:00;;;;;;;28.20;16.00;;;;;;;7.81;100.00;100142.03;5260722;28;20040;-72
2023/12/21 04:41:32;;;;;;;30.37;16.47;;;;;;;7.79;100.00;100130.81;5259363;28;20314;-72
2023/12/21 04:44:05;;;;;;;28.87;15.53;;;;;;;7.89;100.00;100113.41;5260524;28;20464;-72
2023/12/21 04:46:36;;;;;;;;;;;;;;;7.97;100.00;100134.03;5260853;28;20040;-73
2023/12/21 04:49:08;;;;;;;26.55;14.73;;;;;;;7.97;100.00;100121.94;5260401;28;20275;-72
2023/12/21 04:51:39;;;;;;;26.03;13.83;;;;;;;8.02;100.00;100117.53;5260723;28;20056;-72
2023/12/21 04:54:10;;;;;;;31.00;15.20;;;;;;;8.06;100.00;100087.22;5260469;28;20025;-72
2023/12/21 04:56:42;;;;;;;34.17;16.23;;;;;;;8.06;100.00;100102.78;5260844;28;20036;-73
2023/12/21 04:59:14;;;;;;;23.50;13.02;;;;;;;8.08;100.00;100094.97;5260913;28;20036;-72
2023/12/21 05:01:52;;;;;;;27.00;13.33;;;;;;;8.15;100.00;100078.44;5260450;28;20154;-72
2023/12/21 05:04:24;;;;;;;22.10;11.43;;;;;;;8.15;100.00;100076.72;5260722;28;20037;-73
2023/12/21 05:06:57;;;;;;;30.43;14.30;;;;;;;8.15;100.00;100068.06;5260792;28;20086;-73
2023/12/21 05:09:28;;;;;;;;;;;;;;;8.13;100.00;100049.91;5260795;28;20055;-73
2023/12/21 05:11:59;;;;;;;22.50;10.32;;;;;;;8.16;100.00;100056.78;5260353;28;19912;-73
2023/12/21 05:14:31;;;;;;;25.20;10.90;;;;;;;8.20;100.00;100058.47;5259026;28;20033;-72
2023/12/21 05:17:02;;;;;;;20.60;11.23;;;;;;;8.25;100.00;100066.19;5259272;28;20067;-73
2023/12/21 05:19:34;;;;;;;19.03;9.77;;;;;;;8.23;100.00;100058.44;5260677;28;20037;-73
2023/12/21 05:22:05;;;;;;;18.97;10.33;;;;;;;8.25;100.00;100072.25;5260427;28;20171;-73
2023/12/21 05:24:40;;;;;;;24.40;9.73;;;;;;;8.29;100.00;100084.31;5260291;28;20459;-73
2023/12/21 05:27:11;;;;;;;21.83;9.18;;;;;;;8.36;100.00;100080.72;5259062;28;20495;-73
2023/12/21 05:29:43;;;;;;;20.67;7.97;;;;;;;8.42;100.00;100056.41;5260601;28;20029;-74
2023/12/21 05:32:14;;;;;;;14.73;7.63;;;;;;;8.43;100.00;100033.88;5262821;28;20053;-74
2023/12/21 05:34:45;;;;;;;14.23;8.13;;;;;;;8.48;100.00;100026.91;5264090;28;20033;-73
2023/12/21 05:37:17;;;;;;;17.83;7.17;;;;;;;8.47;100.00;100031.25;5263112;28;20035;-74
2023/12/21 05:39:49;;;;;;;18.00;7.40;;;;;;;8.56;100.00;100025.03;5264287;28;20481;-71
2023/12/21 05:42:20;;;;;;;14.00;6.03;;;;;;;8.63;100.00;100026.66;5263812;28;20114;-70
2023/12/21 05:44:52;;;;;;;17.40;6.60;;;;;;;8.63;100.00;100034.47;5263897;28;20507;-72
2023/12/21 05:47:24;;;;;;;15.30;6.40;;;;;;;8.70;100.00;100036.06;5263805;28;20074;-72
2023/12/21 05:49:55;;;;;;;8.33;4.40;;;;;;;8.71;100.00;100048.16;5263981;28;20029;-73
2023/12/21 05:52:26;;;;;;;10.30;5.23;;;;;;;8.76;100.00;100033.34;5263772;28;20044;-73
2023/12/21 05:54:58;;;;;;;11.63;5.07;;;;;;;8.75;100.00;100026.44;5263329;28;20481;-73
2023/12/21 05:57:29;;;;;;;18.23;5.93;;;;;;;8.74;100.00;100045.53;5263852;28;20036;-73
2023/12/21 06:00:00;;;;;;;15.47;4.97;;;;;;;8.70;100.00;100043.84;5263423;28;20044;-74
2023/12/21 06:02:32;;;;;;;11.73;5.23;;;;;;;8.72;100.00;100049.88;5263705;28;20072;-73
2023/12/21 06:05:03;;;;;;;9.40;4.50;;;;;;;8.70;100.00;100051.66;5263773;28;20061;-73
2023/12/21 06:07:35;;;;;;;11.30;5.17;;;;;;;8.65;100.00;100034.44;5263970;28;20033;-73
2023/12/21 06:10:08;;;;;;;16.80;7.37;;;;;;;8.47;100.00;100057.22;5263789;28;20112;-73
2023/12/21 06:12:39;;;;;;;21.95;9.07;;;;;;;8.35;100.00;100027.06;5278241;28;20101;-73
2023/12/21 06:15:11;;;;;;;20.17;8.40;;;;;;;8.30;100.00;100023.69;5284598;28;20037;-73
2023/12/21 06:17:42;;;;;;;19.93;8.40;;;;;;;8.25;100.00;100014.25;5283941;28;20021;-74
2023/12/21 06:20:13;;;;;;;23.10;9.63;;;;;;;8.20;100.00;99997.00;5284625;28;20028;-72
2023/12/21 06:22:45;;;;;;;21.53;11.60;;;;;;;8.17;100.00;99991.00;5284456;28;20491;-73
2023/12/21 06:25:16;;;;;;;20.77;10.00;;;;;;;8.19;100.00;99973.66;5284114;28;20037;-74
2023/12/21 06:27:48;;;;;;;21.17;12.63;;;;;;;8.14;100.00;99960.75;5284424;28;20124;-72
2023/12/21 06:30:19;;;;;;;25.70;11.50;;;;;;;8.11;100.00;99959.94;5284237;28;20036;-73
2023/12/21 06:32:50;;;;;;;19.37;11.97;;;;;;;8.15;100.00;99985.84;5284175;28;20055;-73
2023/12/21 06:35:22;;;;;;;24.30;12.03;;;;;;;8.15;100.00;99991.03;5284080;28;20032;-74
2023/12/21 06:37:53;;;;;;;26.37;12.17;;;;;;;8.15;100.00;99991.03;5282847;28;20131;-73
2023/12/21 06:40:24;;;;;;;21.60;12.57;;;;;;;8.15;100.00;99987.59;5284386;28;20357;-73
2023/12/21 06:42:56;;;;;;;19.03;11.53;;;;;;;8.15;100.00;99977.22;5283728;28;20033;-73
2023/12/21 06:45:27;;;;;;;18.97;10.90;;;;;;;8.13;100.00;99969.44;5284303;28;20068;-73
2023/12/21 06:48:00;;;;;;;27.90;11.33;;;;;;;8.12;100.00;99972.06;5283776;28;20032;-73
2023/12/21 06:50:31;;;;;;;23.50;10.27;;;;;;;8.16;100.00;99973.72;5284069;28;20115;-74
2023/12/21 06:53:02;;;;;;;20.97;9.97;;;;;;;8.14;100.00;99963.34;5283888;28;20124;-74
2023/12/21 06:55:34;;;;;;;20.27;9.53;;;;;;;8.17;100.00;99954.66;5283376;28;20052;-74
2023/12/21 06:58:05;;;;;;;17.53;9.43;;;;;;;8.15;100.00;99933.06;5283734;28;20509;-73
2023/12/21 07:00:37;;;;;;;13.00;8.07;;;;;;;8.18;100.00;99922.66;5284050;28;20044;-74
2023/12/21 07:03:08;;;;;;;22.80;8.23;;;;;;;8.17;100.00;99911.38;5283994;28;20039;-72
2023/12/21 07:05:40;;;;;;;22.63;8.93;;;;;;;8.19;100.00;99919.16;5283585;28;20064;-73
2023/12/21 07:08:11;;;;;;;18.27;9.13;;;;;;;8.17;100.00;99913.97;5282478;28;20174;-73
2023/12/21 07:10:43;;;;;;;18.10;8.87;;;;;;;8.18;100.00;99909.66;5283752;28;20059;-73
2023/12/21 07:13:15;;;;;;;24.25;9.10;;;;;;;8.17;100.00;99895.81;5283542;28;20032;-73
2023/12/21 07:15:46;;;;;;;19.47;8.10;;;;;;;8.19;100.00;99891.47;5282170;28;20111;-73
2023/12/21 07:18:17;;;;;;;16.53;7.37;;;;;;;8.20;100.00;99890.56;5283115;28;20052;-74
2023/12/21 07:20:49;;;;;;;14.83;7.00;;;;;;;8.18;100.00;99891.50;5283158;28;20034;-74
2023/12/21 07:23:20;;;;;;;16.27;8.17;;;;;;;8.23;100.00;99900.06;5283294;28;20093;-74
2023/12/21 07:25:52;;;;;;;23.17;9.87;;;;;;;8.19;100.00;99894.06;5282539;28;20029;-74
2023/12/21 07:28:24;;;;;;;17.93;7.90;;;;;;;8.22;100.00;99875.81;5283068;28;20033;-73
2023/12/21 07:30:55;;;;;;;19.38;7.88;;;;;;;8.25;100.00;99874.91;5283000;28;20052;-73
2023/12/21 07:33:26;;;;;;;17.13;6.37;;;;;;;8.33;100.00;99869.59;5281582;28;20056;-75
2023/12/21 07:35:58;;;;;;;15.93;5.67;;;;;;;8.38;100.00;99857.38;5282757;28;20024;-75
2023/12/21 07:38:29;;;;;;;13.50;5.97;;;;;;;8.40;100.00;99846.06;5283187;28;20075;-75
2023/12/21 07:41:01;;;;;;;11.23;4.33;;;;;;;8.56;100.00;99843.19;5283059;28;20035;-74
2023/12/21 07:43:32;;;;;;;13.10;5.57;;;;;;;8.63;100.00;99834.41;5283067;28;20039;-74
2023/12/21 07:46:03;;;;;;;11.07;4.70;;;;;;;8.59;100.00;99832.75;5283205;28;20037;-74
2023/12/21 07:48:35;;;;;;;8.33;4.13;;;;;;;8.63;100.00;99838.72;5282467;28;20037;-73
2023/12/21 07:51:09;;;;;;;13.63;5.10;;;;;;;8.69;100.00;99839.47;5282562;28;20036;-72
2023/12/21 07:53:41;;;;;;;11.80;5.15;;;;;;;8.73;100.00;99846.31;5281743;28;20126;-72
2023/12/21 07:56:12;;;;;;;13.50;5.73;;;;;;;8.73;100.00;99838.53;5282259;28;20183;-74
2023/12/21 07:58:43;;;;;;;13.43;4.53;;;;;;;8.68;100.00;99836.91;5282792;28;20060;-73
2023/12/21 08:01:15;;;;;;;17.13;6.27;;;;;;;8.61;100.00;99846.56;5282670;28;20039;-74
2023/12/21 08:03:46;;;;;;;17.63;6.00;;;;;;;8.56;100.00;99840.59;5282869;28;20036;-73
2023/12/21 08:06:22;;;;;;;12.13;6.17;;;;;;;8.54;100.00;99829.41;5281178;28;20083;-74
2023/12/21 08:08:53;;;;;;;10.98;4.93;;;;;;;8.46;100.00;99818.31;5282582;28;20104;-72
2023/12/21 08:11:24;;;;;;;16.67;6.60;;;;;;;8.42;100.00;99814.88;5282308;28;20063;-73
2023/12/21 08:13:56;;;;;;;13.63;5.67;;;;;;;8.40;100.00;99814.03;5282451;28;20113;-73
2023/12/21 08:16:27;;;;;;;14.40;6.20;;;;;;;8.43;100.00;99845.19;5282216;28;20063;-72
2023/12/21 08:18:58;;;;;;;11.80;5.50;;;;;;;8.41;100.00;99815.75;5282150;28;20041;-72
2023/12/21 08:21:30;;;;;;;13.80;7.03;;;;;;;8.40;100.00;99807.13;5282109;28;20063;-71
2023/12/21 08:24:01;;;;;;;15.07;7.80;;;;;;;8.40;100.00;99803.66;5281623;28;20132;-72
2023/12/21 08:26:33;;;;;;;12.93;6.30;;;;;;;8.42;100.00;99798.44;5281843;28;20115;-71
2023/12/21 08:29:04;;;;;;;11.43;6.23;;;;;;;8.43;100.00;99788.03;5282330;28;20464;-72
2023/12/21 08:31:35;;;;;;;11.03;6.00;;;;;;;8.43;100.00;99781.97;5282470;28;20044;-73
2023/12/21 08:34:07;;;;;;;14.23;7.50;;;;;;;8.44;100.00;99781.13;5281749;28;20121;-72
2023/12/21 08:36:38;;;;;;;14.20;6.90;;;;;;;8.42;100.00;99785.44;5282152;28;20120;-73
2023/12/21 08:39:09;;;;;;;11.03;6.07;;;;;;;8.43;100.00;99784.56;5282222;28;20032;-73
2023/12/21 08:41:41;;;;;;;19.80;7.83;;;;;;;8.45;100.00;99791.47;5282529;28;20034;-71
2023/12/21 08:44:12;;;;;;;14.00;7.30;;;;;;;8.47;100.00;99791.41;5281863;28;20068;-71
2023/12/21 08:46:44;;;;;;;12.30;7.27;;;;;;;8.50;100.00;99784.44;5282078;28;20102;-70
2023/12/21 08:49:15;;;;;;;11.87;6.53;;;;;;;8.51;100.00;99773.16;5282018;28;20024;-71
2023/12/21 08:51:46;;;;;;;9.03;5.77;;;;;;;8.50;100.00;99775.78;5280591;28;20108;-72
2023/12/21 08:54:18;;;;;;;12.20;6.10;;;;;;;8.52;100.00;99768.84;5281444;28;20033;-72
2023/12/21 08:56:52;;;;;;;8.40;5.30;;;;;;;8.52;100.00;99774.03;5280936;28;20515;-72
2023/12/21 08:59:26;;;;;;;10.95;6.20;;;;;;;8.52;100.00;99748.06;5281581;28;20032;-71
2023/12/21 09:01:58;;;;;;;10.50;6.38;;;;;;;8.53;100.00;99763.63;5281678;28;20043;-71
2023/12/21 09:04:30;;;;;;;11.35;7.03;;;;;;;8.57;100.00;99752.25;5280322;28;20036;-72
2023/12/21 09:07:01;;;;;;;14.40;6.67;;;;;;;8.61;100.00;99759.97;5284569;28;20363;-70
2023/12/21 09:09:32;;;;;;;9.33;5.03;;;;;;;8.64;100.00;99758.16;5285725;28;20098;-70
2023/12/21 09:12:04;;;;;;;13.20;6.13;;;;;;;8.63;100.00;99733.09;5285674;28;20046;-69
2023/12/21 09:14:35;;;;;;;10.97;5.20;;;;;;;8.78;100.00;99754.44;5285998;28;20027;-71
2023/12/21 09:17:07;;;;;;;9.80;4.70;;;;;;;8.82;100.00;99751.72;5284416;28;20128;-72
2023/12/21 09:19:38;;;;;;;9.97;4.30;;;;;;;8.86;100.00;99760.31;5285792;28;20056;-71
2023/12/21 09:22:10;;;;;;;10.30;4.23;;;;;;;8.81;100.00;99764.75;5285912;28;20078;-72
2023/12/21 09:24:41;;;;;;;12.87;5.83;;;;;;;8.86;100.00;99757.72;5285435;28;20094;-72
2023/12/21 09:27:14;;;;;;;11.10;4.17;;;;;;;8.82;100.00;99740.47;5285885;28;20033;-72
2023/12/21 09:29:45;;;;;;;;;;;;;;;8.84;100.00;99723.09;5286169;28;20116;-71
2023/12/21 09:32:16;;;;;;;8.30;3.72;;;;;;;8.81;100.00;99716.25;5285318;28;19935;-71
2023/12/21 09:34:48;;;;;;;10.03;4.00;;;;;;;8.82;100.00;99743.06;5285275;28;20036;-71
2023/12/21 09:37:19;;;;;;;8.30;4.17;;;;;;;8.82;100.00;99730.06;5285653;28;20040;-71
2023/12/21 09:39:51;;;;;;;11.40;5.87;;;;;;;8.91;100.00;99719.47;5284031;28;20041;-70
2023/12/21 09:42:25;;;;;;;7.30;2.90;;;;;;;8.97;100.00;99723.66;5285275;28;20348;-71
2023/12/21 09:44:56;;;;;;;8.10;4.28;;;;;;;9.02;100.00;99717.47;5285210;28;20040;-71
2023/12/21 09:47:29;;;;;;;9.97;3.10;;;;;;;9.02;100.00;99711.44;5285186;28;20062;-72
2023/12/21 09:50:04;;;;;;;8.82;2.95;;;;;;;9.05;100.00;99738.22;5285107;28;20032;-72
2023/12/21 09:52:37;;;;;;;10.15;3.90;;;;;;;9.27;100.00;99720.38;5285184;28;20382;-72
2023/12/21 09:55:10;;;;;;;9.57;2.97;;;;;;;9.22;100.00;99719.59;5284623;28;20037;-72
2023/12/21 09:57:41;;;;;;;9.68;3.40;;;;;;;9.35;100.00;99714.94;5284816;28;20036;-72
2023/12/21 10:00:13;;;;;;;10.80;3.80;;;;;;;9.50;100.00;99708.53;5284918;28;20098;-72
2023/12/21 10:02:45;;;;;;;6.63;1.97;;;;;;;9.59;100.00;99697.84;5284902;28;20032;-72
2023/12/21 10:05:16;;;;;;;8.70;3.10;;;;;;;9.61;100.00;99692.63;5284912;28;20033;-72
2023/12/21 10:07:47;;;;;;;9.47;3.53;;;;;;;9.65;100.00;99678.66;5284590;28;20040;-73
2023/12/21 10:10:19;;;;;;;9.50;3.67;;;;;;;9.67;100.00;99703.72;5284423;28;20093;-72
2023/12/21 10:12:51;;;;;;;7.30;3.03;;;;;;;9.79;100.00;99699.09;5284630;28;20394;-73
2023/12/21 10:15:23;;;;;;;11.53;2.87;;;;;;;9.83;100.00;99691.13;5284758;28;20035;-71
2023/12/21 10:17:54;;;;;;;10.47;3.87;;;;;;;9.92;100.00;99728.22;5282653;28;20478;-72
2023/12/21 10:20:26;;;;;;;9.67;3.30;;;;;;;9.85;100.00;99717.13;5284478;28;20064;-72
2023/12/21 10:22:58;;;;;;;12.98;3.35;;;;;;;9.81;100.00;99713.75;5284345;28;20033;-72
2023/12/21 10:25:30;;;;;;;10.68;3.20;;;;;;;9.78;100.00;99692.19;5284020;28;20373;-72
2023/12/21 10:28:04;;;;;;;14.07;3.43;;;;;;;9.83;100.00;99695.50;5284308;28;20033;-72
2023/12/21 10:30:36;;;;;;;10.45;3.25;;;;;;;9.88;100.00;99711.84;5284452;28;20387;-72
2023/12/21 10:33:12;;;;;;;8.53;2.63;;;;;;;9.90;100.00;99710.06;5284127;28;20048;-72
2023/12/21 10:35:43;;;;;;;10.82;3.20;;;;;;;9.67;100.00;99695.91;5284491;28;20032;-72
2023/12/21 10:38:15;;;;;;;12.63;3.33;;;;;;;9.61;100.00;99698.69;5284478;28;20108;-72
2023/12/21 10:40:46;;;;;;;10.03;2.97;;;;;;;9.62;100.00;99707.34;5282965;28;20028;-72
2023/12/21 10:43:18;;;;;;;12.20;2.63;;;;;;;9.61;100.00;99680.47;5284515;28;20455;-72
2023/12/21 10:45:49;;;;;;;10.10;3.20;;;;;;;9.72;100.00;99693.19;5283801;28;20039;-71
2023/12/21 10:48:22;;;;;;;7.70;2.40;;;;;;;9.73;100.00;99699.25;5283986;28;20439;-72
2023/12/21 10:50:54;;;;;;;8.18;2.72;;;;;;;9.79;100.00;99692.13;5284154;28;20069;-72
2023/12/21 10:53:29;;;;;;;9.20;2.63;;;;;;;9.68;100.00;99697.63;5283789;28;20050;-71
2023/12/21 10:56:01;;;;;;;9.35;3.28;;;;;;;9.60;100.00;99699.56;5283661;28;20186;-71
2023/12/21 10:58:32;;;;;;;13.23;2.77;;;;;;;9.51;100.00;99681.59;5284089;28;20127;-72
2023/12/21 11:01:06;;;;;;;8.20;2.40;;;;;;;9.50;100.00;99666.91;5284038;28;20032;-71
2023/12/21 11:03:38;;;;;;;19.50;2.95;;;;;;;9.48;100.00;99673.88;5283891;28;20444;-71
2023/12/21 11:06:10;;;;;;;;;;;;;;;9.54;100.00;99678.91;5284445;28;20107;-72
2023/12/21 11:08:45;;;;;;;9.05;2.90;;;;;;;9.67;100.00;99667.28;5283939;28;19912;-71
2023/12/21 11:11:22;;;;;;;8.02;3.15;;;;;;;9.65;100.00;99635.25;5283819;28;20020;-72
2023/12/21 11:13:55;;;;;;;14.70;2.60;;;;;;;9.77;100.00;99664.44;5283752;28;20480;-72
2023/12/21 11:16:34;;;;;;;10.10;3.10;;;;;;;9.82;100.00;99688.56;5283622;28;20032;-72
2023/12/21 11:19:09;;;;;;;7.35;2.17;;;;;;;9.75;100.00;99666.22;5283498;28;20516;-73
2023/12/21 11:21:42;;;;;;;9.40;3.80;;;;;;;9.70;100.00;99662.91;5283417;28;20024;-72
2023/12/21 11:24:21;;;;;;;7.38;2.20;;;;;;;9.69;100.00;99656.81;5282957;28;20111;-72
2023/12/21 11:26:52;;;;;;;7.03;2.58;;;;;;;9.67;100.00;99630.84;5282127;28;20041;-72
2023/12/21 11:29:27;;;;;;;7.70;2.40;;;;;;;9.78;100.00;99648.78;5283044;28;20028;-71
2023/12/21 11:32:00;;;;;;;8.95;2.47;;;;;;;9.76;100.00;99696.59;5282726;28;20037;-69
2023/12/21 11:34:37;;;;;;;5.70;2.22;;;;;;;9.84;100.00;99646.00;5283354;28;20025;-71
2023/12/21 11:37:34;;;;;;;7.15;2.65;;;;;;;9.82;100.00;99636.53;5282945;28;20020;-72
2023/12/21 11:40:11;;;;;;;8.02;2.60;;;;;;;9.77;100.00;99615.84;5281650;28;20071;-71